Latest Coastal Weather Observations for Cape Grim

IDT60701

Issued at 1:21 pm EDT Saturday 13 February 2016 (issued every 10 minutes, with the page automatically refreshed every 10 minutes)

About coastal observations | Map of coastal stations | Coastal observations for TAS | Marine services | Other Formats
Station Details ID: 091331 Name: CAPE GRIM Lat: -40.68 Lon: 144.69 Height: 86.0 m
Data from the previous 72 hours. | See also: Recent months at Cape Grim
Date/Time
EDT
Temp

°C
Wind Pressure Rain
since 9am
mm
Weather Cloud Vis
km
Sea
Height
m
Swell
Dir
 
Speed
knots
Gust
knots
hPa Trend Height
m
Period
s
Dir
13/01:00pm 20.0 W 15 20 1006.6 - 0.0 - - - - - - -
13/12:30pm 20.1 W 12 19 1006.6 - 0.0 - - - - - - -
13/12:00pm 21.1 WNW 10 14 1006.8 - 0.0 - - - - - - -
13/11:30am 20.7 WNW 10 13 1007.1 - 0.0 - - - - - - -
13/11:00am 20.0 W 8 11 1007.2 - 0.0 - - - - - - -
13/10:30am 19.4 W 7 10 1007.3 - 0.0 - - - - - - -
13/10:00am 18.8 W 7 12 1007.3 - 0.0 - - - - - - -
13/09:30am 18.1 WSW 7 14 1007.4 - 0.0 - Partly cloudy - - - - -
13/09:06am 18.0 WSW 7 10 1007.4 - 0.0 - Partly cloudy - - - - -
13/09:00am 17.8 WSW 8 14 1007.3 - 0.0 - Cloudy - - - - -
13/08:30am 17.6 W 6 10 1007.6 - 0.0 - Partly cloudy - - - - -
13/08:29am 17.6 W 6 8 1007.5 - 0.0 - Partly cloudy - - - - -
13/08:25am 17.6 W 6 9 1007.4 - 0.0 - Partly cloudy - - - - -
13/08:00am 17.3 W 7 10 1007.3 - 0.0 - Partly cloudy - - - - -
13/07:30am 17.2 WNW 8 9 1007.3 - 0.0 - Partly cloudy - - - - -
13/07:00am 17.0 WNW 7 9 1007.3 - 0.0 - - - - - - -
13/06:30am 16.9 NW 5 7 1006.7 - 0.0 - Partly cloudy - - - - -
13/06:00am 17.0 W 7 10 1007.2 - 0.0 - Cloudy - - - - -
13/05:37am 17.0 W 7 8 1007.0 - 0.0 - Partly cloudy - - - - -
13/05:30am 17.2 W 7 8 1007.1 - 0.0 - Partly cloudy - - - - -
13/05:00am 17.5 WNW 7 10 1007.4 - 0.0 - Cloudy - - - - -
13/04:30am 17.5 NW 7 9 1007.3 - 0.0 - Partly cloudy - - - - -
13/04:00am 17.7 NNW 9 11 1007.7 - 0.0 - Cloudy - - - - -
13/03:30am 17.4 NNW 9 12 1008.0 - 0.0 - Cloudy - - - - -
13/03:09am 16.6 N 7 9 1008.2 - 0.0 - Partly cloudy - - - - -
13/03:00am 16.3 N 9 9 1008.3 - 0.0 - Mostly clear - - - - -
13/02:30am 16.3 NNE 8 10 1008.6 - 0.0 - Partly cloudy - - - - -
13/02:00am 16.2 N 9 11 1009.2 - 0.0 - - - - - - -
13/01:30am 15.5 NNE 11 11 1009.5 - 0.0 - - - - - - -
13/01:00am 15.5 NNE 9 10 1009.9 - 0.0 - - - - - - -
13/12:30am 15.6 NNE 10 11 1009.9 - 0.0 - - - - - - -
13/12:00am 15.3 NNE 11 13 1010.1 - 0.0 - - - - - - -
 
Date/Time
EDT
Temp

°C
Wind Pressure Rain
since 9am
mm
Weather Cloud Vis
km
Sea
Height
m
Swell
Dir
 
Speed
knots
Gust
knots
hPa Trend Height
m
Period
s
Dir
12/11:30pm 15.6 NNE 10 12 1010.3 - 0.0 - - - - - - -
12/11:00pm 15.6 NNE 11 12 1010.5 - 0.0 - - - - - - -
12/10:30pm 15.9 NNE 10 12 1011.2 - 0.0 - - - - - - -
12/10:00pm 15.9 NNE 10 11 1011.4 - 0.0 - Partly cloudy - - - - -
12/09:30pm 15.9 NNE 8 9 1011.6 - 0.0 - Partly cloudy - - - - -
12/09:24pm 15.9 NE 7 9 1011.7 - 0.0 - Partly cloudy - - - - -
12/09:00pm 16.6 N 4 5 1012.0 - 0.0 - Partly cloudy - - - - -
12/08:52pm 16.5 NNE 5 6 1012.2 - 0.0 - Partly cloudy - - - - -
12/08:30pm 16.6 NNW 5 6 1011.9 - 0.0 - Partly cloudy - - - - -
12/08:08pm 17.2 WNW 2 4 1012.1 - 0.0 - Partly cloudy - - - - -
12/08:00pm 17.3 WNW 4 6 1012.3 - 0.0 - Partly cloudy - - - - -
12/07:30pm 18.0 W 5 6 1012.5 - 0.0 - Partly cloudy - - - - -
12/07:00pm 18.5 W 4 6 1012.5 - 0.0 - Cloudy - - - - -
12/06:30pm 18.9 NW 5 7 1012.6 - 0.0 - Cloudy - - - - -
12/06:00pm 19.4 NW 6 7 1012.9 - 0.0 - Cloudy - - - - -
12/05:30pm 20.0 WNW 6 7 1013.2 - 0.0 - Cloudy - - - - -
12/05:21pm 20.1 WNW 6 7 1013.2 - 0.0 - Cloudy - - - - -
12/05:00pm 19.8 NNW 7 10 1013.4 - 0.0 - Partly cloudy - - - - -
12/04:30pm 19.9 NNW 7 10 1013.7 - 0.0 - Partly cloudy - - - - -
12/04:00pm 19.9 N 7 9 1013.8 - 0.0 - Cloudy - - - - -
12/03:30pm 19.6 NNW 7 9 1014.1 - 0.0 - Cloudy - - - - -
12/03:00pm 20.2 NNW 8 10 1014.2 - 0.0 - Cloudy - - - - -
12/02:30pm 21.7 NNE 12 15 1014.2 - 0.0 - Partly cloudy - - - - -
12/02:00pm 20.8 NNE 10 14 1014.5 - 0.0 - Partly cloudy - - - - -
12/01:30pm 20.8 ENE 10 14 1014.7 - 0.0 - Cloudy - - - - -
12/01:09pm 20.1 NNE 11 16 1014.8 - 0.0 - Cloudy - - - - -
12/01:00pm 20.8 NE 12 15 1015.1 - 0.0 - Cloudy - - - - -
12/12:30pm 20.2 NE 11 15 1015.4 - 0.0 - Cloudy - - - - -
12/12:13pm 20.4 NE 11 13 1015.5 - 0.0 - Partly cloudy - - - - -
12/12:00pm 20.0 NE 11 14 1015.6 - 0.0 - - - - - - -
12/11:30am 20.0 NE 11 14 1015.8 - 0.0 - - - - - - -
12/11:00am 19.5 ENE 8 10 1016.0 - 0.0 - Partly cloudy - - - - -
12/10:30am 18.9 E 6 8 1016.2 - 0.0 - Partly cloudy - - - - -
12/10:21am 19.0 E 6 9 1016.2 - 0.0 - Partly cloudy - - - - -
12/10:00am 18.3 E 5 7 1016.5 - 0.0 - Partly cloudy - - - - -
12/09:52am 17.9 E 6 8 1016.5 - 0.0 - Partly cloudy - - - - -
12/09:30am 17.5 ESE 5 7 1016.7 - 0.0 - Partly cloudy - - - - -
12/09:00am 16.7 ESE 5 6 1016.9 - 0.0 - - - - - - -
12/08:30am 15.3 ESE 7 9 1016.5 - 0.0 - - - - - - -
12/08:00am 15.1 SSE 5 7 1016.2 - 0.0 - - - - - - -
12/07:30am 14.4 SE 6 8 1016.0 - 0.0 - - - - - - -
12/07:00am 13.9 SE 6 8 1015.6 - 0.0 - - - - - - -
12/06:30am 14.0 SE 10 11 1015.4 - 0.0 - Partly cloudy - - - - -
12/06:04am 14.0 SE 7 10 1015.3 - 0.0 - Partly cloudy - - - - -
12/06:00am 14.0 SE 7 8 1015.3 - 0.0 - Cloudy - - - - -
12/05:30am 14.5 SSE 6 7 1015.3 - 0.0 - Partly cloudy - - - - -
12/05:19am 14.4 S 6 7 1015.3 - 0.0 - Partly cloudy - - - - -
12/05:00am 14.0 S 6 7 1015.5 - 0.0 - Partly cloudy - - - - -
12/04:30am 14.5 S 8 9 1015.7 - 0.0 - Partly cloudy - - - - -
12/04:00am 14.4 S 11 12 1015.8 - 0.0 - Partly cloudy - - - - -
12/03:30am 14.4 SSW 6 9 1016.0 - 0.0 - Partly cloudy - - - - -
12/03:00am 14.5 S 9 15 1016.2 - 0.0 - Mostly clear - - - - -
12/02:30am 14.5 S 10 16 1016.4 - 0.0 - - - - - - -
12/02:00am 14.9 S 15 22 1016.7 - 0.0 - - - - - - -
12/01:30am 15.0 S 15 20 1016.9 - 0.0 - - - - - - -
12/01:00am 15.0 S 17 23 1017.2 - 0.0 - - - - - - -
12/12:30am 14.9 S 16 23 1017.3 - 0.0 - - - - - - -
12/12:00am 14.7 S 11 17 1017.4 - 0.0 - - - - - - -
 
Date/Time
EDT
Temp

°C
Wind Pressure Rain
since 9am
mm
Weather Cloud Vis
km
Sea
Height
m
Swell
Dir
 
Speed
knots
Gust
knots
hPa Trend Height
m
Period
s
Dir
11/11:30pm 14.9 S 13 19 1017.7 - 0.0 - - - - - - -
11/11:00pm 15.3 S 15 22 1017.7 - 0.0 - - - - - - -
11/10:30pm 15.5 S 15 20 1017.6 - 0.0 - - - - - - -
11/10:00pm 15.6 SSW 16 25 1017.4 - 0.0 - - - - - - -
11/09:30pm 15.9 SSW 18 24 1017.1 - 0.0 - - - - - - -
11/09:00pm 16.1 SSW 20 26 1017.1 - 0.0 - - - - - - -
11/08:30pm 16.3 SSW 17 24 1017.0 - 0.0 - - - - - - -
11/08:00pm 16.7 SSW 18 26 1016.7 - 0.0 - - - - - - -
11/07:30pm 17.0 SSW 19 27 1016.5 - 0.0 - - - - - - -
11/07:17pm 17.0 SSW 19 29 1016.3 - 0.0 - - - - - - -
11/07:00pm 17.6 SSW 18 24 1016.2 - 0.0 - - - - - - -
11/06:30pm 18.1 SSW 18 26 1016.1 - 0.0 - - - - - - -
11/06:11pm 18.3 SW 19 29 1016.1 - 0.0 - - - - - - -
11/06:00pm 17.9 SW 22 31 1016.3 - 0.0 - - - - - - -
11/05:55pm 18.0 SW 21 31 1016.2 - 0.0 - - - - - - -
11/05:30pm 18.4 SSW 17 23 1016.0 - 0.0 - - - - - - -
11/05:00pm 19.0 SSW 17 25 1015.9 - 0.0 - - - - - - -
11/04:30pm 18.5 SW 19 26 1016.0 - 0.0 - - - - - - -
11/04:00pm 19.0 SW 17 25 1016.1 - 0.0 - - - - - - -
11/03:30pm 19.0 SW 21 28 1016.4 - 0.0 - - - - - - -
11/03:00pm 19.3 SW 18 22 1016.6 - 0.0 - - - - - - -
11/02:30pm 19.2 SW 16 22 1016.8 - 0.0 - - - - - - -
11/02:00pm 19.4 SW 16 21 1016.9 - 0.0 - - - - - - -
11/01:30pm 19.6 SW 16 20 1016.9 - 0.0 - - - - - - -
11/01:00pm 18.8 SW 15 20 1016.9 - 0.0 - - - - - - -
11/12:30pm 19.3 SW 13 17 1016.9 - 0.0 - - - - - - -
11/12:00pm 18.7 SW 14 18 1017.2 - 0.0 - - - - - - -
11/11:30am 19.1 SW 13 17 1017.2 - 0.0 - - - - - - -
11/11:00am 18.5 SW 14 16 1017.3 - 0.0 - - - - - - -
11/10:30am 19.2 SW 13 19 1017.4 - 0.0 - - - - - - -
11/10:00am 18.5 SSW 11 14 1017.6 - 0.0 - - - - - - -
11/09:30am 17.7 SSW 11 15 1017.5 - 0.0 - Partly cloudy - - - - -
11/09:00am 17.5 S 10 15 1017.2 - 0.0 - Partly cloudy - - - - -
11/08:30am 17.1 SSE 9 12 1017.0 - 0.0 - Partly cloudy - - - - -
11/08:00am 16.4 SSE 9 11 1016.8 - 0.0 - - - - - - -
11/07:30am 15.6 SSE 8 11 1016.5 - 0.0 - - - - - - -
11/07:00am 14.8 SSE 7 11 1016.1 - 0.0 - - - - - - -
11/06:30am 15.0 SSE 9 11 1015.8 - 0.0 - Partly cloudy - - - - -
11/06:00am 15.4 SSE 10 12 1015.6 - 0.0 - Mostly cloudy - - - - -
11/05:30am 15.8 S 9 11 1015.5 - 0.0 - Cloudy - - - - -
11/05:00am 16.5 S 12 16 1015.1 - 0.0 - Cloudy - - - - -
11/04:30am 16.5 S 13 17 1015.0 - 0.0 - Partly cloudy - - - - -
11/04:00am 16.8 SSW 12 16 1014.9 - 0.0 - Partly cloudy - - - - -
11/03:30am 17.1 SSW 13 18 1014.9 - 0.0 - Partly cloudy - - - - -
11/03:00am 16.9 SSW 13 17 1014.9 - 0.0 - Cloudy - - - - -
11/02:45am 17.0 SW 15 21 1014.9 - 0.0 - Partly cloudy - - - - -
11/02:30am 17.4 SW 13 22 1015.0 - 0.0 - Partly cloudy - - - - -
11/02:29am 17.4 WSW 12 22 1015.0 - 0.0 - Partly cloudy - - - - -
11/02:00am 17.3 WSW 10 18 1015.1 - 0.0 - Partly cloudy - - - - -
11/01:30am 17.2 SW 11 17 1015.3 - 0.0 - Partly cloudy - - - - -
11/01:00am 17.2 SW 12 19 1015.3 - 0.0 - Partly cloudy - - - - -
11/12:58am 17.2 SW 13 19 1015.3 - 0.0 - Partly cloudy - - - - -
11/12:42am 17.4 SW 12 19 1015.4 - 0.0 - Partly cloudy - - - - -
11/12:30am 17.4 SW 12 17 1015.4 - 0.0 - Partly cloudy - - - - -
11/12:06am 17.5 SW 15 19 1015.4 - 0.0 - Partly cloudy - - - - -
11/12:00am 17.3 SW 15 20 1015.4 - 0.0 - Cloudy - - - - -
 
Date/Time
EDT
Temp

°C
Wind Pressure Rain
since 9am
mm
Weather Cloud Vis
km
Sea
Height
m
Swell
Dir
 
Speed
knots
Gust
knots
hPa Trend Height
m
Period
s
Dir
10/11:30pm 17.6 SW 13 17 1015.4 - 0.0 - Partly cloudy - - - - -
10/11:19pm 17.2 SW 12 18 1015.4 - 0.0 - Partly cloudy - - - - -
10/11:00pm 17.7 SW 13 18 1015.4 - 0.0 - Partly cloudy - - - - -
10/10:30pm 17.3 SW 14 19 1015.4 - 0.0 - Partly cloudy - - - - -
10/10:00pm 17.3 SW 16 21 1015.3 - 0.0 - Partly cloudy - - - - -
10/09:30pm 17.5 SW 17 23 1015.2 - 0.0 - Partly cloudy - - - - -
10/09:00pm 17.5 SW 17 23 1015.0 - 0.0 - Partly cloudy - - - - -
10/08:30pm 17.6 SW 18 24 1014.8 - 0.0 - Partly cloudy - - - - -
10/08:00pm 17.9 SW 14 21 1014.6 - 0.0 - Partly cloudy - - - - -
10/07:30pm 18.0 SW 15 23 1014.2 - 0.0 - Partly cloudy - - - - -
10/07:00pm 17.9 SW 17 24 1014.1 - 0.0 - Cloudy - - - - -
10/06:30pm 18.0 SW 17 23 1013.9 - 0.0 - Partly cloudy - - - - -
10/06:00pm 17.9 SW 13 22 1013.8 - 0.0 - Cloudy - - - - -
10/05:46pm 17.7 WSW 15 25 1013.8 - 0.0 - Partly cloudy - - - - -
10/05:30pm 18.0 SW 15 23 1013.7 - 0.0 - Partly cloudy - - - - -
10/05:22pm 18.3 SW 15 25 1013.7 - 0.0 - Partly cloudy - - - - -
10/05:00pm 18.8 SW 15 24 1013.7 - 0.0 - Partly cloudy - - - - -
10/04:30pm 18.4 SW 15 23 1013.7 - 0.0 - Partly cloudy - - - - -
10/04:05pm 18.5 WSW 15 26 1014.0 - 0.0 - Partly cloudy - - - - -
10/04:00pm 18.4 WSW 15 23 1014.0 - 0.0 - Partly cloudy - - - - -
10/03:30pm 18.4 SW 12 22 1014.0 - 0.0 - Partly cloudy - - - - -
10/03:00pm 18.5 SW 13 22 1014.3 - 0.0 - - - - - - -
10/02:30pm 19.1 WSW 11 19 1014.3 - 0.0 - Partly cloudy - - - - -
10/02:00pm 18.7 SW 13 19 1014.5 - 0.0 - Cloudy - - - - -
10/01:30pm 18.3 SW 14 20 1014.5 - 0.0 - Partly cloudy - - - - -

Other Formats:

Comma delimited format used in spreadsheet applications
http://www.bom.gov.au/fwo/IDT60701/IDT60701.95954.axf

JavaScript Object Notation format (JSON) in row-major order
http://www.bom.gov.au/fwo/IDT60701/IDT60701.95954.json